createdAt,value
2023-05-21T00:01:36.060Z,100.00
2023-05-21T00:04:03.475Z,100.00
2023-05-21T00:06:30.361Z,100.00
2023-05-21T00:08:57.112Z,100.00
2023-05-21T00:11:24.127Z,100.00
2023-05-21T00:13:50.655Z,100.00
2023-05-21T00:16:17.159Z,100.00
2023-05-21T00:18:45.014Z,100.00
2023-05-21T00:21:12.312Z,100.00
2023-05-21T00:23:39.785Z,100.00
2023-05-21T00:26:06.493Z,100.00
2023-05-21T00:28:33.007Z,100.00
2023-05-21T00:30:59.473Z,100.00
2023-05-21T00:33:29.310Z,100.00
2023-05-21T00:35:56.860Z,100.00
2023-05-21T00:38:23.905Z,100.00
2023-05-21T00:40:50.777Z,100.00
2023-05-21T00:43:17.262Z,100.00
2023-05-21T00:45:47.471Z,100.00
2023-05-21T00:48:14.885Z,100.00
2023-05-21T00:50:41.918Z,100.00
2023-05-21T00:53:10.052Z,100.00
2023-05-21T00:55:38.077Z,100.00
2023-05-21T00:58:05.186Z,100.00
2023-05-21T01:00:35.823Z,100.00
2023-05-21T01:03:02.434Z,100.00
2023-05-21T01:05:29.250Z,100.00
2023-05-21T01:07:58.120Z,100.00
2023-05-21T01:10:26.148Z,100.00
2023-05-21T01:12:55.189Z,100.00
2023-05-21T01:15:21.885Z,100.00
2023-05-21T01:17:48.912Z,100.00
2023-05-21T01:20:19.868Z,100.00
2023-05-21T01:22:51.981Z,100.00
2023-05-21T01:25:18.844Z,100.00
2023-05-21T01:27:45.564Z,100.00
2023-05-21T01:30:13.275Z,100.00
2023-05-21T01:32:52.408Z,100.00
2023-05-21T01:35:34.164Z,100.00
2023-05-21T01:38:28.198Z,100.00
2023-05-21T01:41:03.560Z,100.00
2023-05-21T01:43:34.018Z,100.00
2023-05-21T01:46:01.817Z,100.00
2023-05-21T01:48:30.128Z,100.00
2023-05-21T01:51:02.376Z,100.00
2023-05-21T01:53:28.913Z,100.00
2023-05-21T01:55:55.878Z,100.00
2023-05-21T01:58:22.988Z,100.00
2023-05-21T02:00:51.171Z,100.00
2023-05-21T02:03:19.396Z,100.00
2023-05-21T02:05:47.032Z,100.00
2023-05-21T02:08:15.082Z,100.00
2023-05-21T02:10:41.664Z,100.00
2023-05-21T02:13:08.205Z,100.00
2023-05-21T02:15:35.123Z,100.00
2023-05-21T02:18:02.404Z,100.00
2023-05-21T02:20:29.008Z,100.00
2023-05-21T02:22:55.688Z,100.00
2023-05-21T02:25:22.370Z,100.00
2023-05-21T02:27:52.859Z,100.00
2023-05-21T02:30:20.066Z,100.00
2023-05-21T02:32:48.690Z,100.00
2023-05-21T02:35:15.856Z,100.00
2023-05-21T02:37:44.050Z,100.00
2023-05-21T02:40:11.579Z,100.00
2023-05-21T02:42:40.260Z,100.00
2023-05-21T02:45:11.597Z,100.00
2023-05-21T02:47:38.932Z,100.00
2023-05-21T02:50:08.825Z,100.00
2023-05-21T02:52:35.653Z,100.00
2023-05-21T02:55:02.323Z,100.00
2023-05-21T02:57:28.878Z,100.00
2023-05-21T02:59:55.582Z,100.00
2023-05-21T03:02:23.803Z,100.00
2023-05-21T03:04:51.583Z,100.00
2023-05-21T03:07:19.146Z,100.00
2023-05-21T03:09:46.415Z,100.00
2023-05-21T03:12:13.343Z,100.00
2023-05-21T03:14:39.812Z,100.00
2023-05-21T03:17:06.525Z,100.00
2023-05-21T03:19:36.729Z,100.00
2023-05-21T03:22:04.702Z,100.00
2023-05-21T03:24:33.173Z,100.00
2023-05-21T03:27:01.472Z,100.00
2023-05-21T03:29:28.844Z,100.00
2023-05-21T03:31:55.814Z,100.00
2023-05-21T03:34:22.461Z,100.00
2023-05-21T03:36:49.183Z,100.00
2023-05-21T03:39:15.861Z,100.00
2023-05-21T03:41:42.435Z,100.00
2023-05-21T03:44:09.097Z,100.00
2023-05-21T03:46:35.903Z,100.00
2023-05-21T03:49:02.710Z,100.00
2023-05-21T03:51:30.876Z,100.00
2023-05-21T03:53:59.121Z,100.00
2023-05-21T03:56:26.267Z,100.00
2023-05-21T03:58:53.195Z,100.00
2023-05-21T04:01:20.007Z,100.00
2023-05-21T04:03:46.981Z,100.00
2023-05-21T04:06:13.849Z,100.00
2023-05-21T04:08:40.343Z,100.00
2023-05-21T04:11:07.064Z,100.00
2023-05-21T04:13:33.520Z,100.00
2023-05-21T04:16:00.109Z,100.00
2023-05-21T04:18:26.856Z,100.00
2023-05-21T04:20:53.844Z,100.00
2023-05-21T04:23:23.734Z,100.00
2023-05-21T04:25:50.921Z,100.00
2023-05-21T04:28:21.138Z,100.00
2023-05-21T04:30:48.100Z,100.00
2023-05-21T04:33:18.255Z,100.00
2023-05-21T04:35:47.347Z,100.00
2023-05-21T04:38:14.228Z,100.00
2023-05-21T04:40:40.876Z,100.00
2023-05-21T04:43:08.259Z,100.00
2023-05-21T04:45:35.217Z,100.00
2023-05-21T04:48:02.946Z,100.00
2023-05-21T04:50:30.971Z,100.00
2023-05-21T04:52:58.921Z,100.00
2023-05-21T04:55:25.997Z,100.00
2023-05-21T04:57:53.014Z,100.00
2023-05-21T05:00:20.188Z,100.00
2023-05-21T05:02:46.861Z,100.00
2023-05-21T05:05:13.460Z,100.00
2023-05-21T05:07:40.194Z,100.00
2023-05-21T05:10:07.268Z,100.00
2023-05-21T05:12:33.762Z,100.00
2023-05-21T05:15:00.273Z,100.00
2023-05-21T05:17:26.755Z,100.00
2023-05-21T05:19:53.319Z,100.00
2023-05-21T05:22:19.795Z,100.00
2023-05-21T05:24:46.317Z,100.00
2023-05-21T05:27:12.860Z,100.00
2023-05-21T05:29:39.344Z,100.00
2023-05-21T05:32:06.370Z,100.00
2023-05-21T05:34:32.889Z,100.00
2023-05-21T05:36:59.455Z,100.00
2023-05-21T05:39:26.055Z,100.00
2023-05-21T05:41:52.639Z,100.00
2023-05-21T05:44:19.229Z,100.00
2023-05-21T05:46:45.879Z,100.00
2023-05-21T05:49:13.665Z,100.00
2023-05-21T05:51:40.917Z,100.00
2023-05-21T05:54:07.451Z,100.00
2023-05-21T05:56:34.204Z,100.00
2023-05-21T05:59:00.756Z,100.00
2023-05-21T06:01:28.117Z,100.00
2023-05-21T06:03:54.763Z,100.00
2023-05-21T06:06:21.337Z,100.00
2023-05-21T06:08:47.915Z,100.00
2023-05-21T06:11:17.186Z,100.00
2023-05-21T06:13:43.729Z,100.00
2023-05-21T06:16:10.346Z,100.00
2023-05-21T06:18:37.548Z,100.00
2023-05-21T06:21:04.116Z,100.00
2023-05-21T06:23:32.672Z,100.00
2023-05-21T06:25:59.304Z,100.00
2023-05-21T06:28:25.863Z,100.00
2023-05-21T06:30:52.502Z,100.00
2023-05-21T06:33:19.124Z,100.00
2023-05-21T06:35:45.798Z,100.00
2023-05-21T06:38:12.432Z,100.00
2023-05-21T06:40:38.913Z,100.00
2023-05-21T06:43:05.548Z,100.00
2023-05-21T06:45:32.162Z,100.00
2023-05-21T06:47:58.710Z,100.00
2023-05-21T06:50:25.509Z,100.00
2023-05-21T06:52:51.980Z,100.00
2023-05-21T06:55:18.660Z,100.00
2023-05-21T06:57:45.173Z,100.00
2023-05-21T07:00:12.345Z,100.00
2023-05-21T07:02:38.961Z,100.00
2023-05-21T07:05:05.950Z,100.00
2023-05-21T07:07:34.901Z,100.00
2023-05-21T07:10:01.394Z,100.00
2023-05-21T07:12:27.852Z,100.00
2023-05-21T07:14:54.543Z,100.00
2023-05-21T07:17:21.051Z,100.00
2023-05-21T07:19:47.661Z,100.00
2023-05-21T07:22:14.538Z,100.00
2023-05-21T07:24:41.266Z,100.00
2023-05-21T07:27:17.792Z,100.00
2023-05-21T07:29:51.058Z,100.00
2023-05-21T07:32:17.693Z,100.00
2023-05-21T07:34:44.189Z,100.00
2023-05-21T07:37:10.862Z,100.00
2023-05-21T07:39:37.851Z,100.00
2023-05-21T07:42:07.094Z,100.00
2023-05-21T07:44:33.601Z,100.00
2023-05-21T07:47:00.097Z,100.00
2023-05-21T07:49:26.626Z,100.00
2023-05-21T07:51:53.077Z,100.00
2023-05-21T07:54:19.812Z,100.00
2023-05-21T07:56:46.576Z,100.00
2023-05-21T07:59:14.614Z,100.00
2023-05-21T08:01:42.105Z,100.00
2023-05-21T08:04:08.850Z,100.00
2023-05-21T08:06:37.470Z,100.00
2023-05-21T08:09:06.151Z,100.00
2023-05-21T08:11:33.094Z,100.00
2023-05-21T08:13:59.950Z,100.00
2023-05-21T08:16:26.992Z,100.00
2023-05-21T08:18:53.668Z,100.00
2023-05-21T08:21:20.827Z,100.00
2023-05-21T08:23:47.535Z,100.00
2023-05-21T08:26:16.489Z,100.00
2023-05-21T08:28:43.434Z,100.00
2023-05-21T08:31:10.009Z,100.00
2023-05-21T08:33:38.373Z,100.00
2023-05-21T08:36:08.416Z,100.00
2023-05-21T08:38:35.019Z,100.00
2023-05-21T08:41:01.672Z,100.00
2023-05-21T08:43:28.764Z,100.00
2023-05-21T08:45:58.812Z,100.00
2023-05-21T08:48:25.495Z,100.00
2023-05-21T08:50:52.959Z,100.00
2023-05-21T08:53:27.457Z,100.00
2023-05-21T08:55:56.238Z,100.00
2023-05-21T08:58:23.003Z,100.00
2023-05-21T09:00:50.016Z,100.00
2023-05-21T09:03:16.736Z,100.00
2023-05-21T09:05:45.186Z,100.00
2023-05-21T09:08:19.405Z,100.00
2023-05-21T09:10:50.902Z,100.00
2023-05-21T09:13:18.478Z,100.00
2023-05-21T09:15:46.022Z,100.00
2023-05-21T09:18:13.603Z,100.00
2023-05-21T09:20:40.824Z,100.00
2023-05-21T09:23:12.553Z,100.00
2023-05-21T09:25:39.716Z,100.00
2023-05-21T09:28:12.286Z,100.00
2023-05-21T09:30:46.795Z,100.00
2023-05-21T09:33:24.473Z,100.00
2023-05-21T09:35:51.006Z,100.00
2023-05-21T09:38:17.787Z,100.00
2023-05-21T09:40:47.917Z,100.00
2023-05-21T09:43:18.556Z,100.00
2023-05-21T09:45:53.350Z,100.00
2023-05-21T09:48:38.390Z,100.00
2023-05-21T09:51:16.617Z,100.00
2023-05-21T09:53:53.402Z,100.00
2023-05-21T09:56:25.765Z,100.00
2023-05-21T09:58:56.938Z,100.00
2023-05-21T10:01:24.125Z,100.00
2023-05-21T10:03:56.013Z,100.00
2023-05-21T10:06:26.425Z,100.00
2023-05-21T10:08:56.740Z,100.00
2023-05-21T10:11:27.133Z,100.00
2023-05-21T10:14:06.727Z,100.00
2023-05-21T10:16:34.643Z,100.00
2023-05-21T10:19:01.970Z,100.00
2023-05-21T10:21:28.674Z,100.00
2023-05-21T10:23:58.738Z,100.00
2023-05-21T10:26:26.399Z,96.76
2023-05-21T10:28:56.156Z,97.71
2023-05-21T10:31:23.340Z,100.00
2023-05-21T10:33:51.142Z,93.61
2023-05-21T10:36:18.741Z,99.32
2023-05-21T10:38:46.460Z,96.74
2023-05-21T10:41:17.263Z,93.23
2023-05-21T10:43:52.934Z,92.29
2023-05-21T10:46:22.290Z,88.71
2023-05-21T10:48:57.705Z,91.06
2023-05-21T10:51:29.154Z,87.88
2023-05-21T10:54:11.015Z,86.19
2023-05-21T10:57:06.196Z,86.75
2023-05-21T10:59:48.546Z,92.17
2023-05-21T11:02:16.711Z,85.97
2023-05-21T11:04:49.072Z,88.85
2023-05-21T11:07:23.901Z,86.06
2023-05-21T11:09:50.971Z,84.77
2023-05-21T11:12:18.105Z,84.73
2023-05-21T11:14:58.021Z,92.00
2023-05-21T11:17:40.006Z,88.51
2023-05-21T11:20:16.749Z,91.04
2023-05-21T11:22:46.608Z,85.50
2023-05-21T11:25:13.559Z,87.97
2023-05-21T11:27:42.222Z,88.05
2023-05-21T11:30:10.711Z,95.56
2023-05-21T11:33:01.527Z,94.92
2023-05-21T11:35:28.126Z,89.29
2023-05-21T11:37:54.788Z,86.16
2023-05-21T11:40:30.208Z,87.43
2023-05-21T11:42:57.280Z,86.33
2023-05-21T11:45:29.000Z,83.43
2023-05-21T11:47:56.221Z,84.25
2023-05-21T11:50:23.163Z,82.00
2023-05-21T11:52:50.934Z,83.63
2023-05-21T11:55:21.922Z,85.59
2023-05-21T11:57:52.246Z,90.16
2023-05-21T12:00:18.711Z,93.12
2023-05-21T12:02:48.443Z,84.16
2023-05-21T12:05:15.287Z,82.49
2023-05-21T12:07:42.467Z,83.32
2023-05-21T12:10:09.482Z,86.40
2023-05-21T12:12:46.079Z,83.74
2023-05-21T12:15:20.586Z,85.04
2023-05-21T12:17:51.143Z,87.19
2023-05-21T12:20:17.873Z,87.27
2023-05-21T12:22:44.779Z,83.51
2023-05-21T12:25:12.169Z,87.94
2023-05-21T12:27:39.365Z,89.20
2023-05-21T12:30:06.731Z,84.60
2023-05-21T12:32:33.285Z,80.02
2023-05-21T12:34:59.936Z,86.03
2023-05-21T12:37:32.597Z,88.47
2023-05-21T12:40:01.250Z,90.22
2023-05-21T12:42:35.062Z,88.89
2023-05-21T12:45:09.349Z,92.58
2023-05-21T12:47:36.534Z,93.02
2023-05-21T12:50:08.068Z,95.59
2023-05-21T12:52:34.737Z,100.00
2023-05-21T12:55:01.380Z,100.00
2023-05-21T12:57:35.562Z,100.00
2023-05-21T13:00:03.766Z,100.00
2023-05-21T13:02:40.249Z,100.00
2023-05-21T13:05:09.075Z,100.00
2023-05-21T13:07:38.080Z,100.00
2023-05-21T13:10:06.232Z,98.79
2023-05-21T13:12:33.966Z,98.83
2023-05-21T13:15:02.327Z,92.22
2023-05-21T13:17:30.670Z,91.15
2023-05-21T13:20:09.525Z,92.81
2023-05-21T13:22:43.650Z,94.94
2023-05-21T13:25:11.790Z,91.81
2023-05-21T13:27:41.880Z,95.21
2023-05-21T13:30:09.470Z,91.18
2023-05-21T13:32:36.631Z,94.86
2023-05-21T13:35:03.504Z,97.71
2023-05-21T13:37:30.726Z,100.00
2023-05-21T13:39:57.462Z,98.17
2023-05-21T13:42:24.293Z,100.00
2023-05-21T13:44:50.788Z,100.00
2023-05-21T13:47:17.420Z,99.72
2023-05-21T13:49:43.908Z,100.00
2023-05-21T13:52:10.668Z,98.66
2023-05-21T13:54:37.422Z,98.89
2023-05-21T13:57:04.498Z,98.14
2023-05-21T13:59:33.444Z,99.93
2023-05-21T14:02:01.062Z,100.00
2023-05-21T14:04:27.668Z,100.00
2023-05-21T14:06:54.471Z,99.37
2023-05-21T14:09:21.432Z,94.57
2023-05-21T14:11:47.920Z,95.74
2023-05-21T14:14:18.901Z,100.00
2023-05-21T14:16:47.314Z,98.49
2023-05-21T14:19:14.373Z,99.71
2023-05-21T14:21:41.083Z,100.00
2023-05-21T14:24:07.758Z,100.00
2023-05-21T14:26:36.672Z,100.00
2023-05-21T14:29:03.219Z,99.77
2023-05-21T14:31:29.868Z,100.00
2023-05-21T14:33:56.391Z,99.54
2023-05-21T14:36:22.906Z,100.00
2023-05-21T14:38:49.528Z,100.00
2023-05-21T14:41:16.034Z,100.00
2023-05-21T14:43:42.518Z,100.00
2023-05-21T14:46:09.004Z,100.00
2023-05-21T14:48:35.596Z,100.00
2023-05-21T14:51:02.126Z,100.00
2023-05-21T14:53:28.661Z,100.00
2023-05-21T14:55:55.456Z,100.00
2023-05-21T14:58:21.940Z,100.00
2023-05-21T15:00:48.521Z,100.00
2023-05-21T15:03:15.049Z,100.00
2023-05-21T15:05:41.667Z,100.00
2023-05-21T15:08:09.609Z,100.00
2023-05-21T15:10:36.323Z,100.00
2023-05-21T15:13:04.023Z,100.00
2023-05-21T15:15:30.522Z,100.00
2023-05-21T15:17:57.827Z,100.00
2023-05-21T15:20:24.561Z,100.00
2023-05-21T15:22:53.504Z,100.00
2023-05-21T15:25:24.167Z,100.00
2023-05-21T15:27:50.806Z,100.00
2023-05-21T15:30:17.441Z,100.00
2023-05-21T15:32:44.097Z,100.00
2023-05-21T15:35:10.789Z,100.00
2023-05-21T15:37:37.347Z,100.00
2023-05-21T15:40:04.608Z,100.00
2023-05-21T15:42:31.782Z,100.00
2023-05-21T15:44:58.694Z,100.00
2023-05-21T15:47:25.419Z,100.00
2023-05-21T15:49:51.953Z,100.00
2023-05-21T15:52:19.863Z,100.00
2023-05-21T15:54:46.921Z,100.00
2023-05-21T15:57:13.534Z,100.00
2023-05-21T15:59:40.176Z,100.00
2023-05-21T16:02:07.794Z,100.00
2023-05-21T16:04:34.523Z,100.00
2023-05-21T16:07:01.007Z,100.00
2023-05-21T16:09:27.550Z,100.00
2023-05-21T16:11:54.000Z,100.00
2023-05-21T16:14:20.573Z,100.00
2023-05-21T16:16:47.139Z,100.00
2023-05-21T16:19:14.020Z,100.00
2023-05-21T16:21:41.521Z,100.00
2023-05-21T16:24:08.023Z,100.00
2023-05-21T16:26:34.517Z,100.00
2023-05-21T16:29:02.271Z,100.00
2023-05-21T16:31:29.084Z,100.00
2023-05-21T16:33:55.885Z,100.00
2023-05-21T16:36:22.438Z,100.00
2023-05-21T16:38:48.917Z,100.00
2023-05-21T16:41:15.659Z,100.00
2023-05-21T16:43:42.196Z,100.00
2023-05-21T16:46:08.739Z,100.00
2023-05-21T16:48:37.348Z,100.00
2023-05-21T16:51:04.568Z,100.00
2023-05-21T16:53:31.154Z,100.00
2023-05-21T16:55:57.683Z,100.00
2023-05-21T16:58:24.530Z,100.00
2023-05-21T17:00:51.030Z,100.00
2023-05-21T17:03:17.911Z,100.00
2023-05-21T17:05:44.399Z,100.00
2023-05-21T17:08:11.034Z,100.00
2023-05-21T17:10:38.026Z,100.00
2023-05-21T17:13:17.776Z,100.00
2023-05-21T17:15:47.804Z,100.00
2023-05-21T17:18:14.391Z,100.00
2023-05-21T17:20:41.088Z,100.00
2023-05-21T17:23:07.708Z,100.00
2023-05-21T17:25:34.693Z,100.00
2023-05-21T17:28:01.702Z,100.00
2023-05-21T17:30:28.172Z,100.00
2023-05-21T17:32:55.009Z,100.00
2023-05-21T17:35:21.523Z,100.00
2023-05-21T17:37:48.128Z,100.00
2023-05-21T17:40:14.696Z,100.00
2023-05-21T17:42:41.225Z,100.00
2023-05-21T17:45:08.090Z,100.00
2023-05-21T17:47:34.707Z,100.00
2023-05-21T17:50:01.329Z,100.00
2023-05-21T17:52:27.918Z,100.00
2023-05-21T17:54:54.848Z,100.00
2023-05-21T17:57:21.372Z,100.00
2023-05-21T17:59:48.037Z,100.00
2023-05-21T18:02:14.567Z,100.00
2023-05-21T18:04:41.045Z,100.00
2023-05-21T18:07:07.518Z,100.00
2023-05-21T18:09:34.497Z,100.00
2023-05-21T18:12:02.665Z,100.00
2023-05-21T18:14:29.103Z,100.00
2023-05-21T18:16:56.012Z,100.00
2023-05-21T18:19:22.689Z,100.00
2023-05-21T18:21:49.557Z,100.00
2023-05-21T18:24:16.027Z,100.00
2023-05-21T18:26:43.456Z,100.00
2023-05-21T18:29:11.264Z,100.00
2023-05-21T18:31:37.776Z,100.00
2023-05-21T18:34:04.327Z,100.00
2023-05-21T18:36:38.334Z,100.00
2023-05-21T18:39:06.328Z,100.00
2023-05-21T18:41:33.438Z,100.00
2023-05-21T18:44:01.733Z,100.00
2023-05-21T18:46:31.662Z,100.00
2023-05-21T18:48:59.899Z,100.00
2023-05-21T18:51:26.524Z,100.00
2023-05-21T18:53:53.269Z,100.00
2023-05-21T18:56:19.950Z,100.00
2023-05-21T18:58:47.664Z,100.00
2023-05-21T19:01:14.393Z,100.00
2023-05-21T19:03:41.041Z,100.00
2023-05-21T19:06:08.488Z,100.00
2023-05-21T19:08:35.076Z,100.00
2023-05-21T19:11:01.678Z,100.00
2023-05-21T19:13:28.212Z,100.00
2023-05-21T19:15:54.967Z,100.00
2023-05-21T19:18:21.569Z,100.00
2023-05-21T19:20:48.121Z,100.00
2023-05-21T19:23:15.188Z,100.00
2023-05-21T19:25:41.770Z,100.00
2023-05-21T19:28:08.292Z,100.00
2023-05-21T19:30:36.413Z,100.00
2023-05-21T19:33:03.506Z,100.00
2023-05-21T19:35:30.455Z,100.00
2023-05-21T19:38:00.180Z,100.00
2023-05-21T19:40:27.246Z,100.00
2023-05-21T19:42:53.674Z,100.00
2023-05-21T19:45:21.492Z,100.00
2023-05-21T19:47:48.383Z,100.00
2023-05-21T19:50:15.032Z,100.00
2023-05-21T19:52:41.513Z,100.00
2023-05-21T19:55:10.289Z,100.00
2023-05-21T19:57:37.219Z,100.00
2023-05-21T20:00:05.466Z,100.00
2023-05-21T20:02:32.270Z,100.00
2023-05-21T20:04:59.190Z,100.00
2023-05-21T20:07:25.889Z,100.00
2023-05-21T20:09:52.468Z,100.00
2023-05-21T20:12:19.287Z,100.00
2023-05-21T20:14:47.517Z,100.00
2023-05-21T20:17:14.772Z,100.00
2023-05-21T20:19:41.384Z,100.00
2023-05-21T20:22:08.303Z,100.00
2023-05-21T20:24:34.821Z,100.00
2023-05-21T20:27:01.774Z,100.00
2023-05-21T20:29:28.884Z,100.00
2023-05-21T20:31:55.699Z,100.00
2023-05-21T20:34:22.263Z,100.00
2023-05-21T20:36:48.788Z,100.00
2023-05-21T20:39:15.601Z,100.00
2023-05-21T20:41:44.667Z,100.00
2023-05-21T20:44:12.048Z,100.00
2023-05-21T20:46:39.001Z,100.00
2023-05-21T20:49:05.907Z,100.00
2023-05-21T20:51:32.948Z,100.00
2023-05-21T20:53:59.600Z,100.00
2023-05-21T20:56:40.889Z,100.00
2023-05-21T20:59:10.441Z,100.00
2023-05-21T21:01:37.945Z,100.00
2023-05-21T21:04:05.186Z,100.00
2023-05-21T21:06:32.288Z,100.00
2023-05-21T21:08:58.853Z,100.00
2023-05-21T21:11:27.012Z,100.00
2023-05-21T21:13:53.571Z,100.00
2023-05-21T21:16:20.307Z,100.00
2023-05-21T21:18:47.156Z,100.00
2023-05-21T21:21:14.067Z,100.00
2023-05-21T21:23:40.726Z,100.00
2023-05-21T21:26:07.280Z,100.00
2023-05-21T21:28:33.992Z,100.00
2023-05-21T21:31:00.770Z,100.00
2023-05-21T21:33:28.442Z,100.00
2023-05-21T21:35:55.465Z,100.00
2023-05-21T21:38:22.245Z,100.00
2023-05-21T21:40:48.900Z,100.00
2023-05-21T21:43:15.442Z,100.00
2023-05-21T21:45:41.998Z,100.00
2023-05-21T21:48:08.678Z,100.00
2023-05-21T21:50:35.435Z,100.00
2023-05-21T21:53:03.632Z,100.00
2023-05-21T21:55:30.371Z,100.00
2023-05-21T21:57:56.977Z,100.00
2023-05-21T22:00:26.755Z,100.00
2023-05-21T22:02:53.917Z,100.00
2023-05-21T22:05:20.887Z,100.00
2023-05-21T22:07:47.704Z,100.00
2023-05-21T22:10:15.954Z,100.00
2023-05-21T22:12:42.985Z,100.00
2023-05-21T22:15:17.935Z,100.00
2023-05-21T22:17:44.860Z,100.00
2023-05-21T22:20:11.491Z,100.00
2023-05-21T22:22:38.039Z,100.00
2023-05-21T22:25:05.134Z,100.00
2023-05-21T22:27:31.634Z,100.00
2023-05-21T22:29:58.211Z,100.00
2023-05-21T22:32:24.714Z,100.00
2023-05-21T22:34:51.178Z,100.00
2023-05-21T22:37:17.865Z,100.00
2023-05-21T22:39:44.619Z,100.00
2023-05-21T22:42:11.421Z,100.00
2023-05-21T22:44:37.900Z,100.00
2023-05-21T22:47:04.674Z,100.00
2023-05-21T22:49:32.676Z,100.00
2023-05-21T22:52:05.344Z,100.00
2023-05-21T22:54:32.788Z,100.00
2023-05-21T22:57:01.134Z,100.00
2023-05-21T22:59:32.336Z,100.00
2023-05-21T23:01:59.298Z,100.00
2023-05-21T23:04:42.686Z,100.00
2023-05-21T23:07:10.738Z,100.00
2023-05-21T23:09:37.381Z,100.00
2023-05-21T23:12:04.480Z,100.00
2023-05-21T23:14:31.122Z,100.00
2023-05-21T23:17:01.944Z,100.00
2023-05-21T23:19:29.547Z,100.00
2023-05-21T23:21:56.398Z,100.00
2023-05-21T23:24:23.116Z,100.00
2023-05-21T23:26:49.818Z,100.00
2023-05-21T23:29:16.811Z,100.00
2023-05-21T23:31:43.715Z,100.00
2023-05-21T23:34:10.690Z,100.00
2023-05-21T23:36:37.318Z,100.00
2023-05-21T23:39:03.924Z,100.00
2023-05-21T23:41:30.521Z,100.00
2023-05-21T23:43:57.050Z,100.00
2023-05-21T23:46:23.665Z,100.00
2023-05-21T23:48:50.231Z,100.00
2023-05-21T23:51:18.302Z,100.00
2023-05-21T23:53:45.474Z,100.00
2023-05-21T23:56:12.112Z,100.00
2023-05-21T23:58:38.632Z,100.00
